Time;durP1;ratioP1;P1;durP2;ratioP2;P2;SDS_P1;SDS_P2;PMS_P1;PMS_P2;Temp;Humidity;BMP_temperature;BMP_pressure;BME280_temperature;BME280_humidity;BME280_pressure;Samples;Min_cycle;Max_cycle;Signal;HPM_P1;HPM_P2
2024/02/17 00:02:32;;;;;;;7.40;2.75;;;12.20;72.70;;;;;;5029393;28;20059;-81
2024/02/17 00:05:17;;;;;;;5.63;3.17;;;12.20;72.10;;;;;;5031894;28;20387;-80
2024/02/17 00:08:01;;;;;;;7.75;3.25;;;12.20;72.10;;;;;;5037695;28;20119;-80
2024/02/17 00:10:46;;;;;;;8.52;3.80;;;12.20;72.10;;;;;;5040956;28;20052;-79
2024/02/17 00:13:31;;;;;;;7.10;3.10;;;12.20;72.10;;;;;;5037015;28;20503;-80
2024/02/17 00:16:15;;;;;;;8.13;3.92;;;12.20;72.20;;;;;;5020643;28;20084;-80
2024/02/17 00:19:00;;;;;;;7.90;2.35;;;12.10;72.00;;;;;;5032241;28;20044;-80
2024/02/17 00:21:44;;;;;;;6.25;3.22;;;12.10;72.10;;;;;;5037295;28;20534;-79
2024/02/17 00:24:29;;;;;;;7.20;2.97;;;12.10;72.10;;;;;;5032539;28;20392;-78
2024/02/17 00:27:14;;;;;;;6.63;3.00;;;12.10;72.10;;;;;;5039374;28;20095;-79
2024/02/17 00:29:58;;;;;;;8.50;3.25;;;12.10;72.10;;;;;;5037020;28;20036;-79
2024/02/17 00:32:43;;;;;;;4.15;2.72;;;12.10;72.20;;;;;;5041593;28;20043;-79
2024/02/17 00:35:28;;;;;;;6.18;3.10;;;12.10;72.20;;;;;;5038543;28;20052;-79
2024/02/17 00:38:13;;;;;;;9.38;3.55;;;12.20;72.40;;;;;;5035234;28;20072;-79
2024/02/17 00:40:58;;;;;;;5.57;2.83;;;12.10;72.20;;;;;;5025018;28;20079;-80
2024/02/17 00:43:42;;;;;;;6.15;3.17;;;12.10;72.20;;;;;;5031351;28;20068;-79
2024/02/17 00:46:27;;;;;;;5.50;3.83;;;12.20;72.40;;;;;;5029560;28;20048;-79
2024/02/17 00:49:12;;;;;;;5.68;2.72;;;12.10;72.20;;;;;;5014749;28;20064;-79
2024/02/17 00:51:56;;;;;;;3.83;2.33;;;12.20;72.40;;;;;;5029936;28;20047;-79
2024/02/17 00:54:41;;;;;;;5.35;2.67;;;12.20;72.40;;;;;;5028672;28;20036;-79
2024/02/17 00:57:26;;;;;;;5.88;2.30;;;12.20;72.40;;;;;;5032615;28;20513;-82
2024/02/17 01:00:11;;;;;;;4.78;2.20;;;12.20;72.40;;;;;;5030442;28;20067;-81
2024/02/17 01:02:55;;;;;;;7.43;2.75;;;12.20;72.40;;;;;;5044823;28;20128;-81
2024/02/17 01:05:42;;;;;;;6.07;2.45;;;12.20;72.40;;;;;;5039364;28;20343;-81
2024/02/17 01:08:27;;;;;;;4.90;2.10;;;12.20;72.40;;;;;;5035864;28;20557;-81
2024/02/17 01:11:11;;;;;;;4.93;2.65;;;12.20;72.40;;;;;;5038878;28;20052;-81
2024/02/17 01:13:56;;;;;;;6.80;2.40;;;12.20;72.40;;;;;;5038182;28;20048;-81
2024/02/17 01:16:43;;;;;;;6.18;2.30;;;12.20;72.40;;;;;;5042318;28;20059;-81
2024/02/17 01:19:28;;;;;;;5.13;2.20;;;12.20;72.40;;;;;;5028785;28;20462;-81
2024/02/17 01:22:12;;;;;;;5.38;2.30;;;12.20;72.40;;;;;;5031644;28;20523;-81
2024/02/17 01:24:57;;;;;;;6.07;1.80;;;12.20;72.40;;;;;;5025708;28;20114;-81
2024/02/17 01:27:42;;;;;;;4.43;2.63;;;12.20;72.40;;;;;;5040851;28;20571;-81
2024/02/17 01:30:26;;;;;;;4.43;1.85;;;12.20;72.40;;;;;;5032246;28;20035;-81
2024/02/17 01:33:12;;;;;;;8.38;3.00;;;12.30;72.60;;;;;;5032023;28;20462;-81
2024/02/17 01:35:56;;;;;;;7.07;1.90;;;12.30;72.60;;;;;;5035074;28;20052;-80
2024/02/17 01:38:41;;;;;;;3.25;1.73;;;12.30;72.60;;;;;;5038414;28;20028;-81
2024/02/17 01:41:26;;;;;;;8.25;1.90;;;12.30;72.60;;;;;;5030712;28;20531;-80
2024/02/17 01:44:11;;;;;;;2.83;1.90;;;12.30;72.60;;;;;;5041892;28;20098;-80
2024/02/17 01:46:56;;;;;;;4.53;2.00;;;12.30;72.60;;;;;;5033414;28;20455;-80
2024/02/17 01:49:41;;;;;;;4.65;1.67;;;12.30;72.60;;;;;;5028495;28;20047;-80
2024/02/17 01:52:25;;;;;;;3.15;1.75;;;12.30;72.70;;;;;;5024204;28;20129;-81
2024/02/17 01:55:10;;;;;;;6.18;1.98;;;12.30;72.60;;;;;;5039737;28;20052;-80
2024/02/17 01:57:59;;;;;;;6.15;1.63;;;12.30;72.60;;;;;;5030663;28;20114;-81
2024/02/17 02:00:43;;;;;;;4.38;1.63;;;12.40;72.80;;;;;;5032999;28;20090;-81
2024/02/17 02:03:29;;;;;;;5.57;1.95;;;12.30;72.60;;;;;;5043351;28;20043;-81
2024/02/17 02:06:13;;;;;;;6.82;2.17;;;12.40;72.90;;;;;;5034191;28;20052;-81
2024/02/17 02:08:58;;;;;;;4.80;1.70;;;12.30;72.70;;;;;;5037125;28;20036;-81
2024/02/17 02:11:42;;;;;;;5.72;1.70;;;12.40;72.90;;;;;;5041476;28;20087;-81
2024/02/17 02:14:27;;;;;;;5.00;1.65;;;12.40;72.90;;;;;;5034301;28;20391;-81
2024/02/17 02:17:12;;;;;;;3.33;1.80;;;12.40;73.00;;;;;;5037886;28;20056;-80
2024/02/17 02:19:57;;;;;;;4.80;2.50;;;12.40;73.00;;;;;;5039019;28;20546;-81
2024/02/17 02:22:43;;;;;;;3.67;1.77;;;12.40;73.00;;;;;;5030084;28;20388;-80
2024/02/17 02:25:28;;;;;;;8.23;2.25;;;12.40;73.00;;;;;;5039134;28;20111;-81
2024/02/17 02:28:12;;;;;;;3.55;1.23;;;12.50;73.20;;;;;;5041169;28;20052;-81
2024/02/17 02:31:00;;;;;;;2.80;1.52;;;12.50;73.20;;;;;;5025465;28;20068;-82
2024/02/17 02:33:46;;;;;;;3.25;1.80;;;12.50;73.20;;;;;;5042674;28;20491;-82
2024/02/17 02:36:31;;;;;;;4.00;1.60;;;12.50;73.20;;;;;;5038136;28;20052;-81
2024/02/17 02:39:16;;;;;;;2.38;1.05;;;12.50;73.30;;;;;;5022298;28;20072;-81
2024/02/17 02:42:00;;;;;;;2.63;1.30;;;12.50;73.20;;;;;;5043930;28;20807;-81
2024/02/17 02:44:45;;;;;;;2.30;1.20;;;12.50;73.30;;;;;;5043370;28;20392;-81
2024/02/17 02:47:30;;;;;;;2.42;1.20;;;12.50;73.80;;;;;;5043270;28;20072;-81
2024/02/17 02:50:15;;;;;;;4.05;1.42;;;12.60;73.50;;;;;;5038889;28;20405;-82
2024/02/17 02:52:59;;;;;;;3.75;1.70;;;12.50;73.30;;;;;;5043537;28;20048;-81
2024/02/17 02:55:44;;;;;;;3.38;1.20;;;12.50;73.30;;;;;;5042353;28;20130;-82
2024/02/17 02:58:32;;;;;;;3.45;1.20;;;12.60;73.50;;;;;;5043346;28;20117;-81
2024/02/17 03:01:17;;;;;;;1.88;1.13;;;12.60;73.60;;;;;;5042652;28;20083;-81
2024/02/17 03:04:02;;;;;;;3.97;1.90;;;12.60;73.60;;;;;;5046349;28;20090;-80
2024/02/17 03:06:46;;;;;;;2.53;1.35;;;12.50;73.50;;;;;;5029580;28;20072;-81
2024/02/17 03:09:31;;;;;;;2.45;1.30;;;12.60;73.70;;;;;;5044744;28;20420;-81
2024/02/17 03:12:15;;;;;;;1.45;1.10;;;12.60;73.60;;;;;;5047117;28;20074;-81
2024/02/17 03:15:02;;;;;;;3.10;1.35;;;12.60;73.70;;;;;;5045012;28;20084;-81
2024/02/17 03:17:47;;;;;;;1.70;1.17;;;12.60;73.70;;;;;;5039242;28;20119;-81
2024/02/17 03:20:31;;;;;;;2.15;1.35;;;12.60;73.70;;;;;;5045968;28;20488;-80
2024/02/17 03:23:17;;;;;;;3.00;1.63;;;12.60;73.70;;;;;;5038292;28;20048;-80
2024/02/17 03:26:01;;;;;;;4.70;1.25;;;12.60;73.70;;;;;;5044166;28;20116;-80
2024/02/17 03:28:45;;;;;;;2.55;1.52;;;12.60;73.80;;;;;;5044907;28;20515;-79
2024/02/17 03:31:34;;;;;;;4.65;1.50;;;12.70;74.00;;;;;;5034878;28;20055;-79
2024/02/17 03:34:18;;;;;;;2.47;1.00;;;12.60;73.80;;;;;;5043569;28;20400;-79
2024/02/17 03:37:03;;;;;;;3.25;1.30;;;12.70;74.00;;;;;;5044775;28;20032;-79
2024/02/17 03:39:48;;;;;;;1.80;1.08;;;12.70;74.00;;;;;;5041888;28;20098;-81
2024/02/17 03:42:33;;;;;;;5.10;1.40;;;12.70;74.00;;;;;;5047130;28;20044;-80
2024/02/17 03:45:19;;;;;;;2.72;1.10;;;12.70;74.00;;;;;;5045693;28;20067;-80
2024/02/17 03:48:04;;;;;;;1.63;1.02;;;12.70;74.10;;;;;;5044330;28;20155;-81
2024/02/17 03:50:50;;;;;;;2.65;1.63;;;12.70;74.10;;;;;;5043353;28;20048;-81
2024/02/17 03:53:35;;;;;;;2.63;1.13;;;12.70;74.10;;;;;;5041237;28;20044;-81
2024/02/17 03:56:20;;;;;;;3.83;1.20;;;12.70;74.10;;;;;;5043368;28;20063;-81
2024/02/17 03:59:05;;;;;;;1.73;0.90;;;12.70;74.20;;;;;;5043202;28;20087;-82
2024/02/17 04:01:55;;;;;;;2.47;1.02;;;12.70;74.20;;;;;;5046633;28;20055;-81
2024/02/17 04:04:40;;;;;;;2.65;0.98;;;12.70;74.20;;;;;;5041029;28;20522;-82
2024/02/17 04:07:24;;;;;;;1.80;0.90;;;12.70;74.20;;;;;;5044940;28;20039;-81
2024/02/17 04:10:09;;;;;;;1.23;0.80;;;12.70;74.20;;;;;;5037601;28;20142;-80
2024/02/17 04:12:54;;;;;;;1.70;1.13;;;12.70;74.30;;;;;;5040952;28;20039;-80
2024/02/17 04:15:39;;;;;;;2.08;1.10;;;12.80;74.40;;;;;;5043609;28;20195;-81
2024/02/17 04:18:24;;;;;;;1.50;1.00;;;12.80;74.40;;;;;;5035257;28;20040;-81
2024/02/17 04:21:08;;;;;;;1.20;0.85;;;12.80;74.50;;;;;;5032032;28;20454;-80
2024/02/17 04:23:53;;;;;;;1.08;0.80;;;12.80;74.50;;;;;;5044545;28;20091;-81
2024/02/17 04:26:38;;;;;;;1.75;1.00;;;12.80;74.50;;;;;;5032458;28;20279;-81
2024/02/17 04:29:23;;;;;;;2.08;0.95;;;12.80;74.50;;;;;;5041816;28;20446;-80
2024/02/17 04:32:07;;;;;;;1.65;1.13;;;12.80;74.50;;;;;;5042452;28;20118;-79
2024/02/17 04:34:52;;;;;;;1.52;0.95;;;12.80;74.50;;;;;;5050422;28;20037;-81
2024/02/17 04:37:37;;;;;;;1.35;1.15;;;12.80;74.50;;;;;;5044079;28;20102;-81
2024/02/17 04:40:22;;;;;;;0.85;0.73;;;12.80;74.60;;;;;;5048756;28;20427;-82
2024/02/17 04:43:06;;;;;;;1.65;0.85;;;12.80;74.60;;;;;;5048085;28;20052;-81
2024/02/17 04:45:51;;;;;;;1.50;0.90;;;12.80;74.60;;;;;;5038039;28;20063;-81
2024/02/17 04:48:35;;;;;;;2.45;1.30;;;12.80;74.60;;;;;;5041070;28;20107;-81
2024/02/17 04:51:20;;;;;;;1.58;0.90;;;12.80;74.70;;;;;;5044002;28;20710;-82
2024/02/17 04:54:07;;;;;;;3.30;1.00;;;12.80;74.70;;;;;;5047387;28;20433;-81
2024/02/17 04:56:51;;;;;;;1.23;1.00;;;12.80;74.70;;;;;;5040324;28;20396;-82
2024/02/17 04:59:36;;;;;;;1.10;1.00;;;12.80;74.70;;;;;;5047565;28;20098;-82
2024/02/17 05:02:23;;;;;;;1.65;1.33;;;12.80;74.70;;;;;;5050615;28;20071;-82
2024/02/17 05:05:07;;;;;;;2.28;1.05;;;12.90;74.90;;;;;;5046618;28;20396;-82
2024/02/17 05:07:52;;;;;;;2.47;1.80;;;12.90;74.90;;;;;;5048629;28;20036;-82
2024/02/17 05:10:38;;;;;;;0.98;0.98;;;12.90;74.90;;;;;;5048744;28;20237;-83
2024/02/17 05:13:22;;;;;;;1.65;1.10;;;12.90;75.00;;;;;;5043556;28;20400;-82
2024/02/17 05:16:09;;;;;;;1.95;1.42;;;12.90;75.00;;;;;;5046862;28;20076;-81
2024/02/17 05:18:54;;;;;;;1.25;0.93;;;12.90;75.00;;;;;;5037390;28;20098;-82
2024/02/17 05:21:43;;;;;;;1.88;1.13;;;12.90;75.00;;;;;;5047512;28;20040;-83
2024/02/17 05:24:28;;;;;;;5.60;1.20;;;12.90;75.00;;;;;;5037891;28;20035;-83
2024/02/17 05:27:13;;;;;;;1.67;1.20;;;12.90;75.10;;;;;;5045531;28;20090;-83
2024/02/17 05:29:58;;;;;;;1.83;1.33;;;12.90;75.10;;;;;;5048364;28;20040;-81
2024/02/17 05:32:43;;;;;;;1.77;1.10;;;12.90;75.10;;;;;;5040951;28;20067;-80
2024/02/17 05:35:27;;;;;;;1.13;0.93;;;12.90;75.10;;;;;;5046887;28;20043;-80
2024/02/17 05:38:12;;;;;;;2.10;1.20;;;12.90;75.20;;;;;;5044434;28;20040;-82
2024/02/17 05:40:57;;;;;;;2.00;1.55;;;12.90;75.20;;;;;;5050180;28;20060;-81
2024/02/17 05:43:41;;;;;;;1.38;1.10;;;13.00;75.40;;;;;;5046310;28;20217;-82
2024/02/17 05:46:26;;;;;;;2.90;1.27;;;13.00;75.50;;;;;;5046137;28;20075;-82
2024/02/17 05:49:10;;;;;;;3.00;1.50;;;13.00;75.50;;;;;;5038394;28;20119;-82
2024/02/17 05:51:56;;;;;;;1.42;1.08;;;13.00;75.50;;;;;;5042449;28;20076;-81
2024/02/17 05:54:40;;;;;;;1.38;1.27;;;13.00;75.50;;;;;;5040391;28;20052;-81
2024/02/17 05:57:26;;;;;;;1.40;1.30;;;13.00;75.60;;;;;;5037880;28;20035;-81
2024/02/17 06:00:11;;;;;;;1.63;1.40;;;13.10;75.70;;;;;;5040229;28;20044;-80
2024/02/17 06:02:56;;;;;;;1.45;1.20;;;13.10;75.70;;;;;;5039444;28;20569;-80
2024/02/17 06:05:42;;;;;;;1.80;1.45;;;13.10;75.70;;;;;;5040535;28;20062;-80
2024/02/17 06:08:26;;;;;;;1.67;1.30;;;13.10;75.80;;;;;;5039862;28;20064;-82
2024/02/17 06:11:11;;;;;;;2.22;1.30;;;13.10;75.80;;;;;;5040182;28;20120;-82
2024/02/17 06:13:55;;;;;;;1.77;1.67;;;13.10;75.80;;;;;;5037683;28;20601;-82
2024/02/17 06:16:40;;;;;;;1.35;1.25;;;13.20;76.50;;;;;;5042229;28;20068;-82
2024/02/17 06:22:28;;;;;;;2.10;1.90;;;13.20;76.00;;;;;;5040488;28;20183;-81
2024/02/17 06:25:12;;;;;;;1.98;1.67;;;13.20;76.00;;;;;;5038139;28;20412;-80
2024/02/17 06:27:56;;;;;;;1.67;1.58;;;13.20;76.00;;;;;;5038474;28;20129;-81
2024/02/17 06:30:41;;;;;;;3.17;2.08;;;13.20;76.00;;;;;;5039497;28;20387;-80
2024/02/17 06:33:27;;;;;;;2.15;1.95;;;13.30;76.20;;;;;;5041075;28;20086;-80
2024/02/17 06:36:12;;;;;;;2.38;2.00;;;13.30;76.20;;;;;;5039794;28;20086;-80
2024/02/17 06:38:56;;;;;;;1.92;1.83;;;13.30;76.20;;;;;;5039598;28;20106;-81
2024/02/17 06:41:42;;;;;;;2.15;1.95;;;13.30;76.80;;;;;;5042845;28;20672;-80
2024/02/17 06:44:27;;;;;;;2.80;2.50;;;13.30;76.30;;;;;;5024034;28;20036;-79
2024/02/17 06:47:12;;;;;;;2.60;2.40;;;13.30;76.30;;;;;;5039954;28;20116;-80
2024/02/17 06:49:56;;;;;;;3.63;3.00;;;13.30;76.30;;;;;;5038250;28;20288;-80
2024/02/17 06:52:41;;;;;;;2.50;2.30;;;13.30;76.30;;;;;;5039967;28;20039;-80
2024/02/17 06:55:25;;;;;;;2.60;2.40;;;13.30;76.30;;;;;;5039118;28;20051;-78
2024/02/17 06:58:09;;;;;;;3.22;2.55;;;13.30;76.30;;;;;;5036462;28;20091;-73
2024/02/17 07:00:53;;;;;;;2.92;1.90;;;13.40;76.60;;;;;;5038961;28;20530;-77
2024/02/17 07:03:38;;;;;;;2.90;2.20;;;13.40;76.90;;;;;;5040852;28;20131;-75
2024/02/17 07:06:23;;;;;;;3.08;2.10;;;13.50;77.20;;;;;;5040508;28;20036;-74
2024/02/17 07:09:07;;;;;;;3.50;2.40;;;13.60;77.40;;;;;;5037201;28;20527;-75
2024/02/17 07:11:52;;;;;;;2.58;2.38;;;13.70;77.60;;;;;;5036809;28;20044;-75
2024/02/17 07:14:40;;;;;;;2.90;2.20;;;13.80;77.70;;;;;;5039726;28;20060;-76
2024/02/17 07:17:24;;;;;;;2.15;2.05;;;13.80;77.80;;;;;;5039456;28;20044;-75
2024/02/17 07:20:09;;;;;;;5.95;2.45;;;13.90;78.00;;;;;;5035060;28;20090;-76
2024/02/17 07:22:54;;;;;;;2.65;2.45;;;14.00;78.30;;;;;;5035796;28;20043;-73
2024/02/17 07:25:38;;;;;;;3.20;2.38;;;13.90;78.00;;;;;;5035895;28;20407;-74
2024/02/17 07:28:23;;;;;;;2.90;2.60;;;14.00;78.20;;;;;;5039168;28;20475;-74
2024/02/17 07:31:10;;;;;;;3.65;3.00;;;14.00;78.20;;;;;;5038675;28;20091;-75
2024/02/17 07:33:57;;;;;;;4.03;3.13;;;14.00;78.20;;;;;;5031943;28;20109;-75
2024/02/17 07:36:42;;;;;;;3.33;2.90;;;14.00;78.20;;;;;;5035814;28;20639;-73
2024/02/17 07:39:26;;;;;;;4.20;3.80;;;14.00;78.20;;;;;;5032707;28;20075;-76
2024/02/17 07:42:11;;;;;;;3.42;3.00;;;14.00;78.20;;;;;;5036747;28;20048;-73
2024/02/17 07:44:56;;;;;;;4.97;3.95;;;14.00;78.20;;;;;;5034539;28;20411;-74
2024/02/17 07:47:41;;;;;;;3.40;3.10;;;14.00;78.20;;;;;;5036351;28;20055;-77
2024/02/17 07:50:25;;;;;;;4.20;3.80;;;14.00;78.20;;;;;;5031981;28;20047;-74
2024/02/17 07:53:10;;;;;;;3.88;3.47;;;14.10;78.30;;;;;;5036015;28;20082;-76
2024/02/17 07:55:54;;;;;;;3.65;3.35;;;14.00;78.20;;;;;;5036581;28;20542;-78
2024/02/17 07:58:39;;;;;;;6.70;3.83;;;14.00;78.10;;;;;;5032810;28;20044;-77
2024/02/17 08:01:23;;;;;;;7.93;4.70;;;14.10;78.30;;;;;;5037613;28;20558;-74
2024/02/17 08:04:08;;;;;;;7.88;3.75;;;14.10;78.20;;;;;;5035206;28;20043;-77
2024/02/17 08:06:53;;;;;;;9.55;4.05;;;14.10;78.20;;;;;;5036572;28;20118;-76
2024/02/17 08:09:38;;;;;;;9.23;3.80;;;14.10;78.20;;;;;;5032668;28;20147;-77
2024/02/17 08:12:23;;;;;;;6.55;2.90;;;14.10;78.20;;;;;;5019039;28;20260;-77
2024/02/17 08:15:08;;;;;;;6.05;3.38;;;14.20;78.30;;;;;;5032627;28;20142;-77
2024/02/17 08:17:52;;;;;;;7.65;3.10;;;14.20;78.20;;;;;;5037342;28;20086;-77
2024/02/17 08:20:37;;;;;;;9.88;2.95;;;14.20;78.20;;;;;;5033660;28;20043;-78
2024/02/17 08:23:25;;;;;;;7.55;3.92;;;14.20;78.10;;;;;;5034135;28;20040;-77
2024/02/17 08:26:16;;;;;;;6.10;2.47;;;14.20;78.10;;;;;;5033490;28;20502;-78
2024/02/17 08:29:00;;;;;;;4.90;2.42;;;14.30;78.20;;;;;;5033866;28;20055;-78
2024/02/17 08:31:49;;;;;;;3.65;2.53;;;14.30;78.20;;;;;;5034902;28;20055;-79
2024/02/17 08:34:33;;;;;;;4.10;2.00;;;14.30;78.10;;;;;;5037093;28;20123;-77
2024/02/17 08:37:18;;;;;;;5.25;1.83;;;14.40;78.10;;;;;;5027371;28;20091;-76
2024/02/17 08:40:04;;;;;;;3.78;1.75;;;14.50;78.10;;;;;;5028092;28;20036;-78
2024/02/17 08:42:50;;;;;;;2.28;1.63;;;14.50;77.90;;;;;;5030308;28;20563;-75
2024/02/17 08:45:34;;;;;;;3.15;1.67;;;14.60;77.90;;;;;;5028029;28;20118;-77
2024/02/17 08:48:20;;;;;;;2.67;1.85;;;14.70;77.90;;;;;;5032905;28;20102;-79
2024/02/17 08:51:04;;;;;;;1.77;1.30;;;14.70;77.80;;;;;;5031115;28;20039;-76
2024/02/17 08:53:49;;;;;;;3.35;1.50;;;14.80;77.70;;;;;;5032569;28;20935;-77
2024/02/17 08:56:33;;;;;;;3.15;1.30;;;14.90;77.60;;;;;;5029765;28;20428;-74
2024/02/17 08:59:18;;;;;;;2.55;1.50;;;15.00;77.60;;;;;;5027360;28;21063;-75
2024/02/17 09:02:03;;;;;;;3.97;1.50;;;15.00;77.40;;;;;;5033048;28;20140;-76
2024/02/17 09:04:48;;;;;;;2.67;1.27;;;15.10;77.30;;;;;;5018169;28;20040;-77
2024/02/17 09:07:33;;;;;;;2.28;1.02;;;15.20;77.30;;;;;;5013914;28;20395;-76
2024/02/17 09:10:18;;;;;;;2.95;1.77;;;15.20;77.10;;;;;;5033896;28;20051;-79
2024/02/17 09:13:04;;;;;;;1.27;0.93;;;15.30;77.10;;;;;;5027888;28;20083;-77
2024/02/17 09:15:48;;;;;;;1.45;1.02;;;15.30;76.80;;;;;;5032714;28;20508;-79
2024/02/17 09:18:33;;;;;;;1.95;1.02;;;15.40;76.80;;;;;;5035715;28;20187;-79
2024/02/17 09:21:17;;;;;;;2.45;1.05;;;15.50;76.80;;;;;;5041375;28;20056;-78
2024/02/17 09:24:03;;;;;;;1.77;0.93;;;15.60;76.60;;;;;;5040150;28;20040;-78
2024/02/17 09:26:48;;;;;;;1.10;0.82;;;15.70;76.50;;;;;;5033557;28;20043;-79
2024/02/17 09:29:32;;;;;;;1.80;1.33;;;15.70;76.30;;;;;;5041010;28;20044;-78
2024/02/17 09:32:17;;;;;;;1.45;1.35;;;15.80;76.30;;;;;;5033214;28;20084;-78
2024/02/17 09:35:01;;;;;;;1.05;0.70;;;15.80;76.20;;;;;;5014664;28;20102;-78
2024/02/17 09:37:46;;;;;;;3.22;1.05;;;15.80;76.00;;;;;;5036776;28;20063;-78
2024/02/17 09:40:30;;;;;;;1.25;1.00;;;15.80;75.90;;;;;;5027853;28;20056;-77
2024/02/17 09:43:15;;;;;;;1.40;0.70;;;15.90;75.90;;;;;;5032631;28;20108;-77
2024/02/17 09:45:59;;;;;;;0.60;0.60;;;15.90;75.80;;;;;;5037209;28;20064;-77
2024/02/17 09:48:44;;;;;;;1.70;0.90;;;15.90;75.70;;;;;;5034127;28;20055;-78
2024/02/17 09:51:30;;;;;;;1.10;0.70;;;15.90;75.60;;;;;;5041289;28;20412;-77
2024/02/17 09:54:20;;;;;;;0.95;0.57;;;16.00;75.60;;;;;;5035649;28;20536;-77
2024/02/17 09:57:08;;;;;;;0.70;0.60;;;16.10;75.50;;;;;;5031031;28;20075;-77
2024/02/17 09:59:53;;;;;;;0.85;0.52;;;16.10;75.20;;;;;;5033848;28;20056;-77
2024/02/17 10:02:38;;;;;;;1.55;0.60;;;16.20;75.30;;;;;;5035833;28;20040;-77
2024/02/17 10:05:27;;;;;;;1.08;0.60;;;16.20;75.20;;;;;;5036983;28;20546;-78
2024/02/17 10:08:12;;;;;;;1.95;0.95;;;16.20;75.10;;;;;;5036576;28;20048;-77
2024/02/17 10:10:57;;;;;;;1.42;0.60;;;16.20;75.10;;;;;;5033797;28;20445;-76
2024/02/17 10:13:42;;;;;;;0.73;0.60;;;16.20;75.00;;;;;;5034793;28;20044;-76
2024/02/17 10:16:33;;;;;;;1.25;0.55;;;16.20;74.90;;;;;;5033080;28;20106;-76
2024/02/17 10:19:18;;;;;;;1.40;1.00;;;16.20;74.80;;;;;;5034811;28;20094;-75
2024/02/17 10:22:03;;;;;;;1.80;0.70;;;16.30;74.90;;;;;;5038938;28;20091;-76
2024/02/17 10:24:47;;;;;;;1.83;0.52;;;16.30;74.70;;;;;;5020345;28;20447;-75
2024/02/17 10:27:33;;;;;;;0.90;0.52;;;16.30;74.60;;;;;;5035345;28;20094;-76
2024/02/17 10:30:21;;;;;;;0.55;0.50;;;16.30;74.40;;;;;;5037885;28;20062;-76
2024/02/17 10:33:09;;;;;;;1.85;0.50;;;16.40;74.40;;;;;;5025759;28;20063;-75
2024/02/17 10:35:57;;;;;;;1.60;0.45;;;16.50;74.40;;;;;;5032189;28;20223;-75
2024/02/17 10:38:42;;;;;;;1.30;0.45;;;16.50;74.20;;;;;;5037796;28;20044;-75
2024/02/17 10:41:29;;;;;;;1.58;0.70;;;16.50;74.10;;;;;;5036006;28;20086;-74
2024/02/17 10:44:13;;;;;;;4.68;1.60;;;16.60;74.20;;;;;;5030674;28;20523;-73
2024/02/17 10:46:58;;;;;;;0.65;0.40;;;16.70;74.20;;;;;;5037134;28;20625;-74
2024/02/17 10:49:48;;;;;;;0.70;0.52;;;16.70;74.00;;;;;;5043222;28;20150;-75
2024/02/17 10:52:43;;;;;;;0.85;0.60;;;16.80;73.90;;;;;;5035680;28;20083;-75
2024/02/17 10:55:35;;;;;;;0.40;0.40;;;16.90;73.90;;;;;;5032523;28;20087;-75
2024/02/17 10:58:21;;;;;;;0.50;0.40;;;16.90;73.80;;;;;;5029379;28;20048;-76
2024/02/17 11:01:09;;;;;;;0.85;0.50;;;16.90;73.70;;;;;;5033461;28;20107;-75
2024/02/17 11:03:56;;;;;;;0.80;0.80;;;16.90;73.70;;;;;;5031817;28;20145;-75
2024/02/17 11:06:42;;;;;;;0.75;0.50;;;16.90;73.70;;;;;;5026523;28;20405;-77
2024/02/17 11:09:29;;;;;;;0.77;0.63;;;16.80;73.50;;;;;;5033658;28;20526;-76
2024/02/17 11:12:31;;;;;;;0.40;0.40;;;16.90;73.70;;;;;;5037262;28;20128;-76
2024/02/17 11:15:16;;;;;;;1.15;0.40;;;16.80;73.50;;;;;;5030436;28;20040;-76
2024/02/17 11:18:01;;;;;;;0.70;0.70;;;16.80;73.50;;;;;;5034744;28;20098;-75
2024/02/17 11:20:45;;;;;;;0.45;0.40;;;16.80;73.50;;;;;;5022033;28;20119;-76
2024/02/17 11:23:36;;;;;;;0.98;0.40;;;16.80;73.50;;;;;;5030676;28;20095;-76
2024/02/17 11:26:22;;;;;;;0.95;0.40;;;16.70;73.40;;;;;;5031229;28;20121;-76
2024/02/17 11:29:06;;;;;;;0.90;0.50;;;16.70;73.40;;;;;;5035378;28;20461;-76
2024/02/17 11:31:51;;;;;;;1.05;0.30;;;16.70;73.40;;;;;;5029459;28;20071;-75
2024/02/17 11:34:36;;;;;;;1.75;0.85;;;16.70;73.40;;;;;;5037432;28;20499;-75
2024/02/17 11:37:22;;;;;;;1.38;0.57;;;16.70;73.20;;;;;;5031926;28;20098;-75
2024/02/17 11:40:08;;;;;;;1.58;0.40;;;16.80;73.10;;;;;;5035154;28;20035;-77
2024/02/17 11:42:56;;;;;;;1.75;0.77;;;16.90;72.90;;;;;;5034030;28;20052;-76
2024/02/17 11:45:41;;;;;;;1.42;0.60;;;16.90;72.60;;;;;;5031566;28;20404;-77
2024/02/17 11:48:30;;;;;;;1.27;0.75;;;17.00;72.60;;;;;;5029675;28;20532;-77
2024/02/17 11:51:19;;;;;;;1.02;0.60;;;17.10;72.60;;;;;;5032475;28;20522;-76
2024/02/17 11:54:04;;;;;;;4.38;1.42;;;17.10;72.30;;;;;;5036312;28;20396;-76
2024/02/17 11:56:49;;;;;;;1.17;0.52;;;17.30;72.40;;;;;;5023824;28;20784;-75
2024/02/17 11:59:36;;;;;;;2.35;1.10;;;17.40;72.20;;;;;;5033112;28;20860;-75
2024/02/17 12:02:22;;;;;;;1.58;1.35;;;17.50;72.10;;;;;;5032761;28;20036;-76
2024/02/17 12:05:07;;;;;;;2.22;1.00;;;17.50;71.90;;;;;;5033212;28;20128;-76
2024/02/17 12:07:52;;;;;;;2.75;1.30;;;17.70;72.10;;;;;;5029815;28;20099;-75
2024/02/17 12:10:36;;;;;;;4.60;1.65;;;17.70;71.90;;;;;;5020700;28;20409;-75
2024/02/17 12:13:21;;;;;;;2.83;1.42;;;17.70;71.70;;;;;;5025198;28;20091;-76
2024/02/17 12:16:09;;;;;;;1.95;1.40;;;17.80;71.70;;;;;;5013256;28;20412;-76
2024/02/17 12:18:54;;;;;;;2.75;1.50;;;17.80;71.60;;;;;;5030781;28;20090;-76
2024/02/17 12:21:40;;;;;;;3.03;2.13;;;17.90;71.60;;;;;;5029676;28;20846;-78
2024/02/17 12:24:24;;;;;;;2.28;1.70;;;17.90;71.50;;;;;;5031364;28;20837;-75
2024/02/17 12:27:09;;;;;;;2.65;2.10;;;17.90;71.50;;;;;;5034663;28;20412;-75
2024/02/17 12:29:55;;;;;;;3.58;2.03;;;17.90;71.40;;;;;;5025331;28;20087;-77
2024/02/17 12:32:39;;;;;;;2.83;1.80;;;17.90;71.30;;;;;;5026663;28;20637;-77
2024/02/17 12:35:24;;;;;;;2.67;1.65;;;17.80;71.10;;;;;;5031528;28;20095;-75
2024/02/17 12:38:09;;;;;;;4.18;1.80;;;17.80;71.20;;;;;;5035042;28;20394;-76
2024/02/17 12:40:54;;;;;;;2.80;1.80;;;17.80;71.20;;;;;;5032403;28;20681;-75
2024/02/17 12:43:38;;;;;;;2.80;2.10;;;17.80;71.20;;;;;;5033466;28;20060;-75
2024/02/17 12:46:26;;;;;;;2.65;1.80;;;17.80;71.20;;;;;;5031687;28;20542;-75
2024/02/17 12:49:12;;;;;;;2.45;2.05;;;17.80;71.10;;;;;;5028869;28;20285;-75
2024/02/17 12:51:58;;;;;;;3.70;2.08;;;18.00;71.80;;;;;;5033247;28;20400;-75
2024/02/17 12:54:43;;;;;;;2.60;1.67;;;18.10;70.90;;;;;;5022533;28;20059;-75
2024/02/17 12:57:28;;;;;;;3.15;1.75;;;18.30;70.80;;;;;;5031813;28;20047;-74
2024/02/17 13:00:13;;;;;;;2.55;2.28;;;18.40;70.70;;;;;;5033365;28;20040;-75
2024/02/17 13:02:58;;;;;;;2.50;1.70;;;18.50;70.70;;;;;;5036934;28;20124;-75
2024/02/17 13:05:44;;;;;;;1.95;1.55;;;18.40;70.50;;;;;;5032808;28;20443;-75
2024/02/17 13:08:29;;;;;;;1.88;1.70;;;18.40;70.50;;;;;;5033412;28;20557;-75
2024/02/17 13:11:13;;;;;;;2.15;1.55;;;18.40;70.60;;;;;;5036348;28;20068;-74
2024/02/17 13:13:58;;;;;;;2.92;1.65;;;18.50;70.70;;;;;;5034372;28;20398;-75
2024/02/17 13:16:42;;;;;;;2.70;1.48;;;18.50;70.80;;;;;;5027832;28;20098;-75
2024/02/17 13:19:30;;;;;;;3.00;1.48;;;18.40;70.70;;;;;;5038397;28;20094;-75
2024/02/17 13:22:14;;;;;;;2.70;1.45;;;18.30;70.70;;;;;;5030465;28;20082;-74
2024/02/17 13:25:00;;;;;;;3.40;1.73;;;18.20;70.70;;;;;;5036261;28;20044;-76
2024/02/17 13:27:45;;;;;;;2.38;1.73;;;18.20;70.90;;;;;;5018785;28;20035;-75
2024/02/17 13:30:29;;;;;;;2.72;1.80;;;18.10;70.90;;;;;;5038207;28;20047;-75
2024/02/17 13:33:16;;;;;;;2.35;1.70;;;18.00;70.90;;;;;;5034514;28;20068;-75
2024/02/17 13:36:01;;;;;;;3.08;1.90;;;18.00;71.00;;;;;;5030161;28;20072;-76
2024/02/17 13:38:45;;;;;;;2.25;1.73;;;18.00;71.20;;;;;;5035189;28;20087;-75
2024/02/17 13:41:31;;;;;;;3.45;1.85;;;17.90;71.10;;;;;;5036949;28;20865;-75
2024/02/17 13:44:17;;;;;;;4.93;2.42;;;17.90;71.30;;;;;;5035475;28;20047;-75
2024/02/17 13:47:01;;;;;;;1.92;1.33;;;17.90;71.40;;;;;;5035990;28;20466;-77
2024/02/17 13:49:46;;;;;;;3.03;2.03;;;17.80;71.40;;;;;;5027844;28;20047;-77
2024/02/17 13:52:31;;;;;;;4.68;1.63;;;17.80;71.50;;;;;;5044364;28;20198;-75
2024/02/17 13:55:15;;;;;;;3.80;2.17;;;17.80;71.60;;;;;;5035204;28;20093;-75
2024/02/17 13:58:00;;;;;;;2.15;1.13;;;17.80;71.70;;;;;;5035824;28;20044;-76
2024/02/17 14:00:44;;;;;;;3.08;1.65;;;17.70;72.10;;;;;;5037979;28;20183;-76
2024/02/17 14:03:29;;;;;;;2.00;1.25;;;17.70;71.60;;;;;;5035141;28;20071;-77
2024/02/17 14:06:15;;;;;;;3.38;1.83;;;17.60;72.00;;;;;;5038146;28;20036;-76
2024/02/17 14:09:00;;;;;;;5.03;2.15;;;17.60;71.50;;;;;;5033290;28;20459;-76
2024/02/17 14:11:44;;;;;;;3.65;1.45;;;17.50;71.50;;;;;;5021227;28;20433;-76
2024/02/17 14:14:29;;;;;;;2.60;1.60;;;17.50;71.50;;;;;;5034881;28;20055;-76
2024/02/17 14:17:16;;;;;;;3.75;1.92;;;17.50;71.60;;;;;;5031763;28;20419;-76
2024/02/17 14:20:01;;;;;;;2.50;1.73;;;17.40;71.40;;;;;;5035732;28;20036;-76
2024/02/17 14:22:45;;;;;;;2.00;1.30;;;17.50;71.60;;;;;;5033244;28;20412;-77
2024/02/17 14:25:33;;;;;;;1.80;1.20;;;17.40;71.40;;;;;;5021006;28;20048;-76